sensor_id;sensor_type;location;lat;lon;timestamp;pressure;altitude;pressure_sealevel;temperature;humidity
57374;BME280;43964;53.890;25.340;2023-02-14T00:02:01;1030.7;;;5.6;66.7
57374;BME280;43964;53.890;25.340;2023-02-14T00:06:13;1030.6;;;5.6;66.7
57374;BME280;43964;53.890;25.340;2023-02-14T00:12:01;1030.5;;;5.5;66.7
57374;BME280;43964;53.890;25.340;2023-02-14T00:17:02;1030.4;;;5.4;66.7
57374;BME280;43964;53.890;25.340;2023-02-14T00:21:37;1030.4;;;5.3;66.7
57374;BME280;43964;53.890;25.340;2023-02-14T00:26:45;1030.4;;;5.3;66.8
57374;BME280;43964;53.890;25.340;2023-02-14T00:31:59;1030.3;;;5.3;66.9
57374;BME280;43964;53.890;25.340;2023-02-14T00:36:25;1030.3;;;5.2;67
57374;BME280;43964;53.890;25.340;2023-02-14T00:41:37;1030.3;;;5.1;67
57374;BME280;43964;53.890;25.340;2023-02-14T00:46:26;1030.4;;;5.1;67.1
57374;BME280;43964;53.890;25.340;2023-02-14T00:51:13;1030.4;;;5.2;67
57374;BME280;43964;53.890;25.340;2023-02-14T00:56:25;1030.6;;;5.2;67
57374;BME280;43964;53.890;25.340;2023-02-14T01:01:27;1030.8;;;5.2;67.1
57374;BME280;43964;53.890;25.340;2023-02-14T01:06:59;1030.8;;;5.3;67
57374;BME280;43964;53.890;25.340;2023-02-14T01:12:01;1030.9;;;5.3;66.9
57374;BME280;43964;53.890;25.340;2023-02-14T01:16:47;1030.9;;;5.3;66.9
57374;BME280;43964;53.890;25.340;2023-02-14T01:21:26;1030.9;;;5.3;66.9
57374;BME280;43964;53.890;25.340;2023-02-14T01:27:01;1031;;;5.3;66.9
57374;BME280;43964;53.890;25.340;2023-02-14T01:31:25;1031.1;;;5.4;66.9
57374;BME280;43964;53.890;25.340;2023-02-14T01:36:43;1031.3;;;5.4;66.9
57374;BME280;43964;53.890;25.340;2023-02-14T01:41:24;1031.3;;;5.4;66.9
57374;BME280;43964;53.890;25.340;2023-02-14T01:46:37;1031.3;;;5.4;66.9
57374;BME280;43964;53.890;25.340;2023-02-14T01:51:13;1031.5;;;5.4;66.9
57374;BME280;43964;53.890;25.340;2023-02-14T01:56:14;1031.6;;;5.4;66.8
57374;BME280;43964;53.890;25.340;2023-02-14T02:02:01;1031.6;;;5.4;66.8
57374;BME280;43964;53.890;25.340;2023-02-14T02:06:56;1031.6;;;5.5;66.7
57374;BME280;43964;53.890;25.340;2023-02-14T02:11:51;1031.6;;;5.5;66.7
57374;BME280;43964;53.890;25.340;2023-02-14T02:16:40;1031.6;;;5.6;66.6
57374;BME280;43964;53.890;25.340;2023-02-14T02:21:55;1031.5;;;5.6;66.5
57374;BME280;43964;53.890;25.340;2023-02-14T02:27:18;1031.6;;;5.6;66.5
57374;BME280;43964;53.890;25.340;2023-02-14T02:31:27;1031.6;;;5.6;66.4
57374;BME280;43964;53.890;25.340;2023-02-14T02:36:16;1031.6;;;5.5;66.4
57374;BME280;43964;53.890;25.340;2023-02-14T02:41:41;1031.6;;;5.5;66.5
57374;BME280;43964;53.890;25.340;2023-02-14T02:47:02;1031.7;;;5.5;66.5
57374;BME280;43964;53.890;25.340;2023-02-14T02:51:25;1031.7;;;5.5;66.4
57374;BME280;43964;53.890;25.340;2023-02-14T02:57:03;1031.7;;;5.5;66.4
57374;BME280;43964;53.890;25.340;2023-02-14T03:01:36;1031.7;;;5.5;66.3
57374;BME280;43964;53.890;25.340;2023-02-14T03:06:47;1031.8;;;5.5;66.3
57374;BME280;43964;53.890;25.340;2023-02-14T03:11:23;1031.8;;;5.5;66.2
57374;BME280;43964;53.890;25.340;2023-02-14T03:16:56;1031.8;;;5.6;66.1
57374;BME280;43964;53.890;25.340;2023-02-14T03:21:27;1031.9;;;5.5;66.1
57374;BME280;43964;53.890;25.340;2023-02-14T03:26:27;1031.9;;;5.5;66
57374;BME280;43964;53.890;25.340;2023-02-14T03:31:51;1032;;;5.5;66
57374;BME280;43964;53.890;25.340;2023-02-14T03:37:02;1032;;;5.5;66
57374;BME280;43964;53.890;25.340;2023-02-14T03:42:00;1032;;;5.5;66
57374;BME280;43964;53.890;25.340;2023-02-14T03:46:46;1032.1;;;5.5;66
57374;BME280;43964;53.890;25.340;2023-02-14T03:52:01;1032.2;;;5.5;66
57374;BME280;43964;53.890;25.340;2023-02-14T03:56:14;1032.3;;;5.5;65.9
57374;BME280;43964;53.890;25.340;2023-02-14T04:01:41;1032.2;;;5.5;65.8
57374;BME280;43964;53.890;25.340;2023-02-14T04:06:25;1032.3;;;5.6;65.8
57374;BME280;43964;53.890;25.340;2023-02-14T04:11:49;1032.3;;;5.6;65.7
57374;BME280;43964;53.890;25.340;2023-02-14T04:16:13;1032.3;;;5.5;65.7
57374;BME280;43964;53.890;25.340;2023-02-14T04:21:51;1032.3;;;5.5;65.6
57374;BME280;43964;53.890;25.340;2023-02-14T04:26:51;1032.2;;;5.5;65.6
57374;BME280;43964;53.890;25.340;2023-02-14T04:32:01;1032.2;;;5.4;65.7
57374;BME280;43964;53.890;25.340;2023-02-14T04:37:01;1032.2;;;5.3;65.8
57374;BME280;43964;53.890;25.340;2023-02-14T04:42:01;1032.2;;;5.3;65.7
57374;BME280;43964;53.890;25.340;2023-02-14T04:46:25;1032.2;;;5.4;65.7
57374;BME280;43964;53.890;25.340;2023-02-14T04:51:13;1032.3;;;5.4;65.6
57374;BME280;43964;53.890;25.340;2023-02-14T04:56:13;1032.3;;;5.4;65.6
57374;BME280;43964;53.890;25.340;2023-02-14T05:01:13;1032.3;;;5.3;65.6
57374;BME280;43964;53.890;25.340;2023-02-14T05:06:25;1032.3;;;5.2;65.7
57374;BME280;43964;53.890;25.340;2023-02-14T05:11:37;1032.4;;;5.2;65.6
57374;BME280;43964;53.890;25.340;2023-02-14T05:17:03;1032.5;;;5;65.7
57374;BME280;43964;53.890;25.340;2023-02-14T05:21:39;1032.6;;;5;65.8
57374;BME280;43964;53.890;25.340;2023-02-14T05:27:03;1032.6;;;4.9;65.9
57374;BME280;43964;53.890;25.340;2023-02-14T05:31:47;1032.7;;;5;66
57374;BME280;43964;53.890;25.340;2023-02-14T05:36:13;1032.7;;;5.1;65.8
57374;BME280;43964;53.890;25.340;2023-02-14T05:41:13;1032.7;;;5.1;65.8
57374;BME280;43964;53.890;25.340;2023-02-14T05:46:25;1032.7;;;5.1;65.7
57374;BME280;43964;53.890;25.340;2023-02-14T05:51:45;1032.7;;;5.1;65.7
57374;BME280;43964;53.890;25.340;2023-02-14T05:56:13;1032.7;;;5.1;65.7
57374;BME280;43964;53.890;25.340;2023-02-14T06:06:13;1032.8;;;5.1;65.6
57374;BME280;43964;53.890;25.340;2023-02-14T06:12:03;1032.9;;;5.1;65.5
57374;BME280;43964;53.890;25.340;2023-02-14T06:16:37;1032.9;;;5.1;65.4
57374;BME280;43964;53.890;25.340;2023-02-14T06:21:47;1033;;;5.1;65.3
57374;BME280;43964;53.890;25.340;2023-02-14T06:27:01;1033.1;;;5.2;65.3
57374;BME280;43964;53.890;25.340;2023-02-14T06:31:25;1033.1;;;5.3;65.2
57374;BME280;43964;53.890;25.340;2023-02-14T06:36:35;1033.1;;;5.3;65.2
57374;BME280;43964;53.890;25.340;2023-02-14T06:41:49;1033.1;;;5.4;65
57374;BME280;43964;53.890;25.340;2023-02-14T06:46:47;1033.2;;;5.4;64.9
57374;BME280;43964;53.890;25.340;2023-02-14T06:51:59;1033.2;;;5.5;64.8
57374;BME280;43964;53.890;25.340;2023-02-14T06:56:23;1033.3;;;5.6;64.6
57374;BME280;43964;53.890;25.340;2023-02-14T07:01:57;1033.3;;;5.7;64.3
57374;BME280;43964;53.890;25.340;2023-02-14T07:07:03;1033.3;;;5.8;64
57374;BME280;43964;53.890;25.340;2023-02-14T07:11:37;1033.4;;;5.9;64
57374;BME280;43964;53.890;25.340;2023-02-14T07:16:13;1033.4;;;5.9;64
57374;BME280;43964;53.890;25.340;2023-02-14T07:21:59;1033.5;;;6.1;63.7
57374;BME280;43964;53.890;25.340;2023-02-14T07:26:27;1033.6;;;6.4;63.5
57374;BME280;43964;53.890;25.340;2023-02-14T07:31:25;1033.5;;;6.5;63.4
57374;BME280;43964;53.890;25.340;2023-02-14T07:36:23;1033.5;;;6.4;62.8
57374;BME280;43964;53.890;25.340;2023-02-14T07:41:47;1033.5;;;6.8;63
57374;BME280;43964;53.890;25.340;2023-02-14T07:46:37;1033.6;;;7.2;62.6
57374;BME280;43964;53.890;25.340;2023-02-14T07:51:33;1033.6;;;7.4;62.2
57374;BME280;43964;53.890;25.340;2023-02-14T07:56:59;1033.7;;;7.3;61.9
57374;BME280;43964;53.890;25.340;2023-02-14T08:01:21;1033.7;;;7.4;61.7
57374;BME280;43964;53.890;25.340;2023-02-14T08:06:49;1033.7;;;7.7;61.2
57374;BME280;43964;53.890;25.340;2023-02-14T08:12:01;1033.8;;;7.8;60.7
57374;BME280;43964;53.890;25.340;2023-02-14T08:16:37;1033.7;;;7.9;60.1
57374;BME280;43964;53.890;25.340;2023-02-14T08:21:25;1033.8;;;8.1;60.1
57374;BME280;43964;53.890;25.340;2023-02-14T08:26:39;1034;;;8.3;60.3
57374;BME280;43964;53.890;25.340;2023-02-14T08:31:47;1033.9;;;8.3;60
57374;BME280;43964;53.890;25.340;2023-02-14T08:36:49;1033.8;;;8.3;59.8
57374;BME280;43964;53.890;25.340;2023-02-14T08:42:01;1033.9;;;8.3;59.4
57374;BME280;43964;53.890;25.340;2023-02-14T08:46:37;1034;;;8.2;58.6
57374;BME280;43964;53.890;25.340;2023-02-14T08:52:03;1033.9;;;8.5;58.6
57374;BME280;43964;53.890;25.340;2023-02-14T08:56:13;1034;;;8.6;58.4
57374;BME280;43964;53.890;25.340;2023-02-14T09:01:45;1034;;;8.6;58.3
57374;BME280;43964;53.890;25.340;2023-02-14T09:06:36;1033.9;;;8.5;58.2
57374;BME280;43964;53.890;25.340;2023-02-14T09:11:51;1034;;;8.6;58
57374;BME280;43964;53.890;25.340;2023-02-14T09:16:21;1034;;;8.7;57.6
57374;BME280;43964;53.890;25.340;2023-02-14T09:21:49;1034.2;;;8.5;57.6
57374;BME280;43964;53.890;25.340;2023-02-14T09:26:49;1034.1;;;8.4;56.9
57374;BME280;43964;53.890;25.340;2023-02-14T09:31:35;1034.2;;;8.3;57.3
57374;BME280;43964;53.890;25.340;2023-02-14T09:37:01;1034.2;;;8.1;57.2
57374;BME280;43964;53.890;25.340;2023-02-14T09:41:18;1034.2;;;8;57.1
57374;BME280;43964;53.890;25.340;2023-02-14T09:47:04;1034.1;;;7.9;56.9
57374;BME280;43964;53.890;25.340;2023-02-14T09:51:26;1034.2;;;7.8;56.7
57374;BME280;43964;53.890;25.340;2023-02-14T09:56:49;1034.3;;;7.9;56.7
57374;BME280;43964;53.890;25.340;2023-02-14T10:01:22;1034.4;;;8;57.1
57374;BME280;43964;53.890;25.340;2023-02-14T10:06:50;1034.4;;;7.9;56.9
57374;BME280;43964;53.890;25.340;2023-02-14T10:11:14;1034.4;;;8;56.9
57374;BME280;43964;53.890;25.340;2023-02-14T10:16:48;1034.4;;;7.9;56.9
57374;BME280;43964;53.890;25.340;2023-02-14T10:21:24;1034.4;;;8;56.8
57374;BME280;43964;53.890;25.340;2023-02-14T10:27:04;1034.4;;;8.1;56.4
57374;BME280;43964;53.890;25.340;2023-02-14T10:32:02;1034.4;;;8.2;56.7
57374;BME280;43964;53.890;25.340;2023-02-14T10:36:44;1034.5;;;8.2;56.1
57374;BME280;43964;53.890;25.340;2023-02-14T10:42:03;1034.5;;;8.1;56.4
57374;BME280;43964;53.890;25.340;2023-02-14T10:46:28;1034.4;;;8.1;56
57374;BME280;43964;53.890;25.340;2023-02-14T10:51:51;1034.4;;;8.1;55.9
57374;BME280;43964;53.890;25.340;2023-02-14T10:56:14;1034.5;;;8.1;55.8
57374;BME280;43964;53.890;25.340;2023-02-14T11:01:51;1034.3;;;8.2;55.8
57374;BME280;43964;53.890;25.340;2023-02-14T11:06:39;1034.3;;;8.3;55.2
57374;BME280;43964;53.890;25.340;2023-02-14T11:11:59;1034.3;;;8.4;55.2
57374;BME280;43964;53.890;25.340;2023-02-14T11:16:17;1034.3;;;8.5;54.7
57374;BME280;43964;53.890;25.340;2023-02-14T11:22:01;1034.2;;;8.5;54.1
57374;BME280;43964;53.890;25.340;2023-02-14T11:26:49;1034.3;;;8.5;54
57374;BME280;43964;53.890;25.340;2023-02-14T11:31:28;1034.3;;;8.6;53.9
57374;BME280;43964;53.890;25.340;2023-02-14T11:37:03;1034.3;;;8.6;52.9
57374;BME280;43964;53.890;25.340;2023-02-14T11:41:27;1034.3;;;8.6;52.6
57374;BME280;43964;53.890;25.340;2023-02-14T11:46:49;1034.3;;;8.7;52.4
57374;BME280;43964;53.890;25.340;2023-02-14T11:51:26;1034.3;;;8.8;52.3
57374;BME280;43964;53.890;25.340;2023-02-14T11:56:44;1034.3;;;8.8;51.9
57374;BME280;43964;53.890;25.340;2023-02-14T12:01:39;1034.2;;;8.7;51.7
57374;BME280;43964;53.890;25.340;2023-02-14T12:06:49;1034.2;;;8.7;51
57374;BME280;43964;53.890;25.340;2023-02-14T12:11:37;1034.2;;;8.6;51
57374;BME280;43964;53.890;25.340;2023-02-14T12:16:46;1034.2;;;8.4;50
57374;BME280;43964;53.890;25.340;2023-02-14T12:22:02;1034.2;;;8.5;50.6
57374;BME280;43964;53.890;25.340;2023-02-14T12:26:15;1034.3;;;8.5;50.5
57374;BME280;43964;53.890;25.340;2023-02-14T12:31:37;1034.3;;;8.6;51
57374;BME280;43964;53.890;25.340;2023-02-14T12:36:58;1034.3;;;8.5;50.5
57374;BME280;43964;53.890;25.340;2023-02-14T12:42:05;1034.3;;;8.7;50.4
57374;BME280;43964;53.890;25.340;2023-02-14T12:47:04;1034.3;;;8.7;50.2
57374;BME280;43964;53.890;25.340;2023-02-14T12:52:07;1034.4;;;8.7;49.8
57374;BME280;43964;53.890;25.340;2023-02-14T12:57:04;1034.4;;;8.8;49.7
57374;BME280;43964;53.890;25.340;2023-02-14T13:02:05;1034.5;;;8.8;49.9
57374;BME280;43964;53.890;25.340;2023-02-14T13:06:38;1034.5;;;8.7;49.8
57374;BME280;43964;53.890;25.340;2023-02-14T13:11:15;1034.5;;;8.6;49.1
57374;BME280;43964;53.890;25.340;2023-02-14T13:17:02;1034.6;;;8.7;49.5
57374;BME280;43964;53.890;25.340;2023-02-14T13:21:26;1034.6;;;8.6;49.1
57374;BME280;43964;53.890;25.340;2023-02-14T13:26:50;1034.6;;;8.6;48.7
57374;BME280;43964;53.890;25.340;2023-02-14T13:31:37;1034.6;;;8.6;48.4
57374;BME280;43964;53.890;25.340;2023-02-14T13:36:45;1034.7;;;8.4;49
57374;BME280;43964;53.890;25.340;2023-02-14T13:42:03;1034.7;;;8.3;48.7
57374;BME280;43964;53.890;25.340;2023-02-14T13:46:50;1034.7;;;8.4;48.6
57374;BME280;43964;53.890;25.340;2023-02-14T13:52:02;1034.7;;;8.4;48.6
57374;BME280;43964;53.890;25.340;2023-02-14T13:56:31;1034.7;;;8.4;48.7
57374;BME280;43964;53.890;25.340;2023-02-14T14:01:49;1034.7;;;8.2;48.8
57374;BME280;43964;53.890;25.340;2023-02-14T14:06:13;1034.7;;;8;49
57374;BME280;43964;53.890;25.340;2023-02-14T14:11:51;1034.7;;;7.9;48.9
57374;BME280;43964;53.890;25.340;2023-02-14T14:16:28;1034.7;;;7.9;48.7
57374;BME280;43964;53.890;25.340;2023-02-14T14:21:23;1034.7;;;7.9;48.4
57374;BME280;43964;53.890;25.340;2023-02-14T14:26:49;1034.7;;;7.9;48.5
57374;BME280;43964;53.890;25.340;2023-02-14T14:31:47;1034.7;;;7.9;48.5
57374;BME280;43964;53.890;25.340;2023-02-14T14:37:02;1034.6;;;7.8;48.1
57374;BME280;43964;53.890;25.340;2023-02-14T14:41:25;1034.7;;;7.7;48.1
57374;BME280;43964;53.890;25.340;2023-02-14T14:47:03;1034.7;;;7.6;48
57374;BME280;43964;53.890;25.340;2023-02-14T14:51:15;1034.8;;;7.5;48.5
57374;BME280;43964;53.890;25.340;2023-02-14T14:56:16;1034.8;;;7.3;48.5
57374;BME280;43964;53.890;25.340;2023-02-14T15:01:30;1034.9;;;7.2;48.6
57374;BME280;43964;53.890;25.340;2023-02-14T15:06:49;1034.9;;;7;48.8
57374;BME280;43964;53.890;25.340;2023-02-14T15:11:14;1035;;;7;48.8
57374;BME280;43964;53.890;25.340;2023-02-14T15:16:15;1035.1;;;6.9;48.8
57374;BME280;43964;53.890;25.340;2023-02-14T15:21:47;1035.2;;;6.7;48.9
57374;BME280;43964;53.890;25.340;2023-02-14T15:27:03;1035.3;;;6.6;49
57374;BME280;43964;53.890;25.340;2023-02-14T15:32:01;1035.4;;;6.4;49.1
57374;BME280;43964;53.890;25.340;2023-02-14T15:36:47;1035.4;;;6.1;49.2
57374;BME280;43964;53.890;25.340;2023-02-14T15:41:59;1035.5;;;6;49.3
57374;BME280;43964;53.890;25.340;2023-02-14T15:46:28;1035.6;;;5.9;49.3
57374;BME280;43964;53.890;25.340;2023-02-14T15:51:47;1035.6;;;5.9;49.4
57374;BME280;43964;53.890;25.340;2023-02-14T15:56:17;1035.6;;;5.8;49.4
57374;BME280;43964;53.890;25.340;2023-02-14T16:01:48;1035.7;;;5.7;49.5
57374;BME280;43964;53.890;25.340;2023-02-14T16:06:36;1035.8;;;5.6;49.5
57374;BME280;43964;53.890;25.340;2023-02-14T16:12:35;1035.8;;;5.5;49.7
57374;BME280;43964;53.890;25.340;2023-02-14T16:16:25;1035.9;;;5.4;49.7
57374;BME280;43964;53.890;25.340;2023-02-14T16:22:03;1035.9;;;5.4;49.7
57374;BME280;43964;53.890;25.340;2023-02-14T16:26:49;1036;;;5.5;49.7
57374;BME280;43964;53.890;25.340;2023-02-14T16:31:13;1036;;;5.5;49.7
57374;BME280;43964;53.890;25.340;2023-02-14T16:36:26;1036.1;;;5.4;49.7
57374;BME280;43964;53.890;25.340;2023-02-14T16:41:14;1036.1;;;5.4;49.8
57374;BME280;43964;53.890;25.340;2023-02-14T16:46:25;1036.2;;;5.4;49.8
57374;BME280;43964;53.890;25.340;2023-02-14T16:51:26;1036.2;;;5.4;49.8
57374;BME280;43964;53.890;25.340;2023-02-14T16:56:38;1036.2;;;5.3;49.8
57374;BME280;43964;53.890;25.340;2023-02-14T17:01:25;1036.3;;;5.2;49.9
57374;BME280;43964;53.890;25.340;2023-02-14T17:07:01;1036.3;;;5.1;49.9
57374;BME280;43964;53.890;25.340;2023-02-14T17:11:34;1036.4;;;4.9;50
57374;BME280;43964;53.890;25.340;2023-02-14T17:16:45;1036.4;;;4.8;50.1
57374;BME280;43964;53.890;25.340;2023-02-14T17:21:37;1036.5;;;4.7;50.2
57374;BME280;43964;53.890;25.340;2023-02-14T17:26:13;1036.5;;;4.7;50.3
57374;BME280;43964;53.890;25.340;2023-02-14T17:31:37;1036.6;;;4.7;50.4
57374;BME280;43964;53.890;25.340;2023-02-14T17:36:37;1036.6;;;4.6;50.4
57374;BME280;43964;53.890;25.340;2023-02-14T17:42:01;1036.6;;;4.6;50.6
57374;BME280;43964;53.890;25.340;2023-02-14T17:46:59;1036.6;;;4.6;50.7
57374;BME280;43964;53.890;25.340;2023-02-14T17:51:33;1036.7;;;4.6;50.8
57374;BME280;43964;53.890;25.340;2023-02-14T17:57:01;1036.8;;;4.6;50.6
57374;BME280;43964;53.890;25.340;2023-02-14T18:02:03;1036.8;;;4.5;50.9
57374;BME280;43964;53.890;25.340;2023-02-14T18:06:39;1036.8;;;4.5;51
57374;BME280;43964;53.890;25.340;2023-02-14T18:11:49;1036.8;;;4.5;51.1
57374;BME280;43964;53.890;25.340;2023-02-14T18:16:37;1036.8;;;4.5;51.2
57374;BME280;43964;53.890;25.340;2023-02-14T18:21:14;1036.7;;;4.4;51.1
57374;BME280;43964;53.890;25.340;2023-02-14T18:26:38;1036.7;;;4.4;51.2
57374;BME280;43964;53.890;25.340;2023-02-14T18:31:25;1036.7;;;4.3;51.3
57374;BME280;43964;53.890;25.340;2023-02-14T18:37:01;1036.7;;;4.3;51.4
57374;BME280;43964;53.890;25.340;2023-02-14T18:42:01;1036.8;;;4.2;51.5
57374;BME280;43964;53.890;25.340;2023-02-14T18:46:14;1036.9;;;4.1;51.6
57374;BME280;43964;53.890;25.340;2023-02-14T18:52:02;1036.8;;;4.1;51.8
57374;BME280;43964;53.890;25.340;2023-02-14T18:56:47;1036.8;;;4.1;51.8
57374;BME280;43964;53.890;25.340;2023-02-14T19:01:34;1036.8;;;4.1;51.9
57374;BME280;43964;53.890;25.340;2023-02-14T19:06:28;1036.8;;;4.1;51.9
57374;BME280;43964;53.890;25.340;2023-02-14T19:12:02;1036.8;;;4;52
57374;BME280;43964;53.890;25.340;2023-02-14T19:16:27;1036.8;;;4;52
57374;BME280;43964;53.890;25.340;2023-02-14T19:21:14;1036.8;;;3.9;52
57374;BME280;43964;53.890;25.340;2023-02-14T19:26:37;1036.9;;;3.7;52.1
57374;BME280;43964;53.890;25.340;2023-02-14T19:31:46;1036.9;;;3.6;52.4
57374;BME280;43964;53.890;25.340;2023-02-14T19:36:49;1037;;;3.5;52.7
57374;BME280;43964;53.890;25.340;2023-02-14T19:41:33;1037;;;3.5;52.7
57374;BME280;43964;53.890;25.340;2023-02-14T19:47:01;1037;;;3.4;52.9
57374;BME280;43964;53.890;25.340;2023-02-14T19:51:26;1037;;;3.5;53.2
57374;BME280;43964;53.890;25.340;2023-02-14T19:56:50;1037;;;3.6;53.3
57374;BME280;43964;53.890;25.340;2023-02-14T20:01:17;1037.1;;;3.6;53.4
57374;BME280;43964;53.890;25.340;2023-02-14T20:06:49;1037;;;3.6;53.4
57374;BME280;43964;53.890;25.340;2023-02-14T20:11:21;1037.1;;;3.6;53.3
57374;BME280;43964;53.890;25.340;2023-02-14T20:16:39;1037.1;;;3.5;53.4
57374;BME280;43964;53.890;25.340;2023-02-14T20:21:25;1037.1;;;3.6;53.5
57374;BME280;43964;53.890;25.340;2023-02-14T20:26:47;1037.1;;;3.6;53.4
57374;BME280;43964;53.890;25.340;2023-02-14T20:31:59;1037.1;;;3.5;53.2
57374;BME280;43964;53.890;25.340;2023-02-14T20:36:25;1037.1;;;3.3;53.2
57374;BME280;43964;53.890;25.340;2023-02-14T20:41:51;1037.1;;;3.4;53.5
57374;BME280;43964;53.890;25.340;2023-02-14T20:46:25;1037.1;;;3.4;53.4
57374;BME280;43964;53.890;25.340;2023-02-14T20:51:37;1037.1;;;3.3;53.7
57374;BME280;43964;53.890;25.340;2023-02-14T20:56:13;1037.2;;;3.4;53.7
57374;BME280;43964;53.890;25.340;2023-02-14T21:01:49;1037.2;;;3.6;53.6
57374;BME280;43964;53.890;25.340;2023-02-14T21:06:35;1037.1;;;3.5;53.6
57374;BME280;43964;53.890;25.340;2023-02-14T21:11:47;1037.2;;;3.5;53.5
57374;BME280;43964;53.890;25.340;2023-02-14T21:16:47;1037.2;;;3.5;53.7
57374;BME280;43964;53.890;25.340;2023-02-14T21:21:59;1037.3;;;3.4;53.8
57374;BME280;43964;53.890;25.340;2023-02-14T21:27:01;1037.3;;;3.4;53.8
57374;BME280;43964;53.890;25.340;2023-02-14T21:31:45;1037.3;;;3.3;53.8
57374;BME280;43964;53.890;25.340;2023-02-14T21:36:57;1037.3;;;3.4;54
57374;BME280;43964;53.890;25.340;2023-02-14T21:41:14;1037.3;;;3.5;54
57374;BME280;43964;53.890;25.340;2023-02-14T21:46:43;1037.3;;;3.5;53.9
57374;BME280;43964;53.890;25.340;2023-02-14T21:51:13;1037.3;;;3.5;54
57374;BME280;43964;53.890;25.340;2023-02-14T21:56:49;1037.3;;;3.5;54.1
57374;BME280;43964;53.890;25.340;2023-02-14T22:01:38;1037.3;;;3.4;54
57374;BME280;43964;53.890;25.340;2023-02-14T22:06:59;1037.2;;;3.3;54.1
57374;BME280;43964;53.890;25.340;2023-02-14T22:11:39;1037.3;;;3.2;54.1
57374;BME280;43964;53.890;25.340;2023-02-14T22:16:59;1037.3;;;3;54.2
57374;BME280;43964;53.890;25.340;2023-02-14T22:21:59;1037.4;;;2.8;54.3
57374;BME280;43964;53.890;25.340;2023-02-14T22:26:45;1037.5;;;2.8;54.5
57374;BME280;43964;53.890;25.340;2023-02-14T22:31:57;1037.5;;;2.7;54.6
57374;BME280;43964;53.890;25.340;2023-02-14T22:36:13;1037.6;;;2.7;54.7
57374;BME280;43964;53.890;25.340;2023-02-14T22:41:45;1037.5;;;2.6;54.8
57374;BME280;43964;53.890;25.340;2023-02-14T22:46:14;1037.5;;;2.6;54.9
57374;BME280;43964;53.890;25.340;2023-02-14T22:51:40;1037.6;;;2.4;54.9
57374;BME280;43964;53.890;25.340;2023-02-14T22:56:38;1037.6;;;2.3;54.9
57374;BME280;43964;53.890;25.340;2023-02-14T23:01:51;1037.6;;;2.2;55.2
57374;BME280;43964;53.890;25.340;2023-02-14T23:06:26;1037.7;;;2;55.3
57374;BME280;43964;53.890;25.340;2023-02-14T23:11:57;1037.7;;;1.9;55.5
57374;BME280;43964;53.890;25.340;2023-02-14T23:16:45;1037.7;;;1.7;55.9
57374;BME280;43964;53.890;25.340;2023-02-14T23:21:13;1037.7;;;1.7;56.5
57374;BME280;43964;53.890;25.340;2023-02-14T23:26:37;1037.7;;;1.7;56.4
57374;BME280;43964;53.890;25.340;2023-02-14T23:31:25;1037.7;;;1.6;56.3
57374;BME280;43964;53.890;25.340;2023-02-14T23:36:45;1037.7;;;1.6;56.6
57374;BME280;43964;53.890;25.340;2023-02-14T23:41:13;1037.8;;;1.6;56.6
57374;BME280;43964;53.890;25.340;2023-02-14T23:46:35;1037.8;;;1.6;56.7
57374;BME280;43964;53.890;25.340;2023-02-14T23:51:37;1037.9;;;1.6;56.7
57374;BME280;43964;53.890;25.340;2023-02-14T23:57:01;1037.9;;;1.5;56.3
